Pagrindinis puslapis
METAR-TAF:

METAR-TAF

Oro uostai :

Hamadanas, Iranas

platuma: 34-52-05N, ilguma: 048-33-08E, Aukštis: 1757 m

Dabartinis oras

Ataskaita buvo paskelbta 10 valandos ir 57 minutes, ne 13:00 UTC
Vėjas 17 kt iš Pietvakarių su gūsio iki 28 kt
Temperatūra 9°C
Drėgmė 57%
Slėgis 1007 hPa
Matomumas 10 km arba daugiau
Mažai debesys ne aukštis 3500 ft, Liūtiniai kamuoliniai debesys.
Išsisklaidę debesys ne aukštis 4000 ft

METAR: OIHH 301300Z 23017G28KT 9999 FEW035CB SCT040 09/01 Q1007

Laikas: 04:27 (23:57 UTC)


TAF: trūkstamas

Orai ataskaitas ir orų prognozės (METAR, TAF).

turimą stotys yra geltonos ir raudonos taškus žemėlapyje.

Perkelti pele per norėdami pamatyti stoties vardą.

Tada spustelėkite, norėdami matyti oro stebėjimo ir prognozės.

Norėdami pakeisti žemėlapį: spustelėkite ant žalios mygtukų su juodo kryžiaus žemyn,; žalią mygtuką su brūkšneliu, jei norite nutolinti; arba žalių rodyklių gretimoms žemėlapius.


METAR-TAF: